createdAt,value
2018-10-16T00:00:20.145Z,77.88
2018-10-16T00:02:49.748Z,78.23
2018-10-16T00:05:19.054Z,78.19
2018-10-16T00:07:48.145Z,77.96
2018-10-16T00:10:17.520Z,78.40
2018-10-16T00:12:46.898Z,78.48
2018-10-16T00:15:16.473Z,78.44
2018-10-16T00:17:47.220Z,78.46
2018-10-16T00:20:16.829Z,78.88
2018-10-16T00:22:47.234Z,79.11
2018-10-16T00:25:16.338Z,78.79
2018-10-16T00:27:47.401Z,78.63
2018-10-16T00:30:16.795Z,79.08
2018-10-16T00:32:47.393Z,78.34
2018-10-16T00:35:16.894Z,78.65
2018-10-16T00:37:47.273Z,79.23
2018-10-16T00:40:16.590Z,79.92
2018-10-16T00:42:47.221Z,79.46
2018-10-16T00:45:16.803Z,79.73
2018-10-16T00:47:45.770Z,79.73
2018-10-16T00:50:14.768Z,80.03
2018-10-16T00:52:44.094Z,79.01
2018-10-16T00:55:13.406Z,79.05
2018-10-16T00:57:43.030Z,79.04
2018-10-16T01:00:11.786Z,79.77
2018-10-16T01:02:40.859Z,79.28
2018-10-16T01:05:09.352Z,79.19
2018-10-16T01:07:38.635Z,79.58
2018-10-16T01:10:07.528Z,79.37
2018-10-16T01:12:37.077Z,79.76
2018-10-16T01:15:06.049Z,79.41
2018-10-16T01:17:35.142Z,79.41
2018-10-16T01:20:03.892Z,79.41
2018-10-16T01:22:33.067Z,79.07
2018-10-16T01:25:02.135Z,79.74
2018-10-16T01:27:31.458Z,79.70
2018-10-16T01:30:01.074Z,80.51
2018-10-16T01:32:30.381Z,79.65
2018-10-16T01:35:00.003Z,80.16
2018-10-16T01:37:28.742Z,80.38
2018-10-16T01:39:58.370Z,80.39
2018-10-16T01:42:29.809Z,80.68
2018-10-16T01:45:01.799Z,80.01
2018-10-16T01:47:31.442Z,80.42
2018-10-16T01:50:00.478Z,80.23
2018-10-16T01:52:30.066Z,80.69
2018-10-16T01:55:00.602Z,80.96
2018-10-16T01:57:33.754Z,81.26
2018-10-16T02:03:18.245Z,81.93
2018-10-16T02:05:48.765Z,81.80
2018-10-16T02:08:18.390Z,82.38
2018-10-16T02:10:48.009Z,82.06
2018-10-16T02:13:16.981Z,82.69
2018-10-16T02:15:47.422Z,82.58
2018-10-16T02:18:16.723Z,82.12
2018-10-16T02:20:47.537Z,81.39
2018-10-16T02:23:17.161Z,81.30
2018-10-16T02:25:47.514Z,81.20
2018-10-16T02:28:16.777Z,80.91
2018-10-16T02:30:47.457Z,80.77
2018-10-16T02:33:16.449Z,81.27
2018-10-16T02:35:47.610Z,80.87
2018-10-16T02:38:17.201Z,80.73
2018-10-16T02:40:47.589Z,81.25
2018-10-16T02:43:17.166Z,81.74
2018-10-16T02:45:47.469Z,81.56
2018-10-16T02:48:16.774Z,81.18
2018-10-16T02:50:47.614Z,81.36
2018-10-16T02:53:17.217Z,81.17
2018-10-16T02:55:47.565Z,81.30
2018-10-16T02:58:17.171Z,81.53
2018-10-16T03:00:47.522Z,81.37
2018-10-16T03:03:16.841Z,81.46
2018-10-16T03:05:47.646Z,81.14
2018-10-16T03:08:17.472Z,81.77
2018-10-16T03:10:47.573Z,81.52
2018-10-16T03:13:17.217Z,81.97
2018-10-16T03:15:47.566Z,81.05
2018-10-16T03:18:16.891Z,81.20
2018-10-16T03:20:47.682Z,81.57
2018-10-16T03:23:17.290Z,81.00
2018-10-16T03:25:47.294Z,80.62
2018-10-16T03:28:16.597Z,81.18
2018-10-16T03:30:45.686Z,80.80
2018-10-16T03:33:15.346Z,80.67
2018-10-16T03:35:44.667Z,80.58
2018-10-16T03:38:14.313Z,80.31
2018-10-16T03:40:43.620Z,80.42
2018-10-16T03:43:13.286Z,80.56
2018-10-16T03:45:42.610Z,81.38
2018-10-16T03:48:11.913Z,81.33
2018-10-16T03:50:41.411Z,81.66
2018-10-16T03:53:11.040Z,81.99
2018-10-16T03:55:40.345Z,82.24
2018-10-16T03:58:08.816Z,82.23
2018-10-16T04:00:38.436Z,82.27
2018-10-16T04:03:07.767Z,82.39
2018-10-16T04:05:36.456Z,82.20
2018-10-16T04:08:05.778Z,81.98
2018-10-16T04:10:35.354Z,81.66
2018-10-16T04:13:04.389Z,81.62
2018-10-16T04:15:33.482Z,81.10
2018-10-16T04:18:02.776Z,81.31
2018-10-16T04:20:32.208Z,80.88
2018-10-16T04:23:01.716Z,80.64
2018-10-16T04:25:31.385Z,81.22
2018-10-16T04:28:00.354Z,81.18
2018-10-16T04:30:29.661Z,80.93
2018-10-16T04:32:59.035Z,81.61
2018-10-16T04:35:28.486Z,80.83
2018-10-16T04:37:57.842Z,81.20
2018-10-16T04:40:27.413Z,81.57
2018-10-16T04:42:57.010Z,81.27
2018-10-16T04:45:26.582Z,80.60
2018-10-16T04:47:55.902Z,80.13
2018-10-16T04:50:25.497Z,79.90
2018-10-16T04:52:54.785Z,80.50
2018-10-16T04:55:24.386Z,79.88
2018-10-16T04:57:53.693Z,79.60
2018-10-16T05:00:22.732Z,79.36
2018-10-16T05:02:52.081Z,79.83
2018-10-16T05:05:21.164Z,79.40
2018-10-16T05:07:51.014Z,79.87
2018-10-16T05:10:20.441Z,79.72
2018-10-16T05:12:49.727Z,80.71
2018-10-16T05:15:18.458Z,79.98
2018-10-16T05:17:47.965Z,80.82
2018-10-16T05:20:17.549Z,81.03
2018-10-16T05:22:47.862Z,80.42
2018-10-16T05:25:17.493Z,80.11
2018-10-16T05:27:47.652Z,80.45
2018-10-16T05:30:16.706Z,80.44
2018-10-16T05:32:46.006Z,81.05
2018-10-16T05:35:15.339Z,81.33
2018-10-16T05:37:44.626Z,82.23
2018-10-16T05:40:13.929Z,81.65
2018-10-16T05:42:43.214Z,81.38
2018-10-16T05:45:12.442Z,81.80
2018-10-16T05:47:41.512Z,81.10
2018-10-16T05:50:10.238Z,81.18
2018-10-16T05:52:39.857Z,81.31
2018-10-16T05:55:09.443Z,81.69
2018-10-16T05:57:38.782Z,81.35
2018-10-16T06:00:19.052Z,81.71
2018-10-16T06:02:48.850Z,81.64
2018-10-16T06:05:18.157Z,82.16
2018-10-16T06:07:48.029Z,82.20
2018-10-16T06:10:17.674Z,81.19
2018-10-16T06:12:47.923Z,81.12
2018-10-16T06:15:17.213Z,80.98
2018-10-16T06:17:47.872Z,80.86
2018-10-16T06:20:17.174Z,81.24
2018-10-16T06:22:47.688Z,81.46
2018-10-16T06:25:16.479Z,81.10
2018-10-16T06:27:45.807Z,80.86
2018-10-16T06:30:15.027Z,80.13
2018-10-16T06:32:51.180Z,80.02
2018-10-16T06:35:20.769Z,79.99
2018-10-16T06:37:50.065Z,79.65
2018-10-16T06:40:19.102Z,79.76
2018-10-16T06:42:48.410Z,79.36
2018-10-16T06:45:17.860Z,79.32
2018-10-16T06:47:48.170Z,79.50
2018-10-16T06:50:17.755Z,79.92
2018-10-16T06:52:48.102Z,79.69
2018-10-16T06:55:17.479Z,79.22
2018-10-16T06:57:48.119Z,78.81
2018-10-16T07:00:17.521Z,79.01
2018-10-16T07:02:47.833Z,79.28
2018-10-16T07:05:16.785Z,79.31
2018-10-16T07:07:46.107Z,78.63
2018-10-16T07:10:15.732Z,79.12
2018-10-16T07:12:44.688Z,78.73
2018-10-16T07:15:14.001Z,78.92
2018-10-16T07:17:43.281Z,78.64
2018-10-16T07:20:12.342Z,78.35
2018-10-16T07:22:41.825Z,78.11
2018-10-16T07:25:11.103Z,78.52
2018-10-16T07:27:40.150Z,77.91
2018-10-16T07:30:09.492Z,77.70
2018-10-16T07:32:38.933Z,78.00
2018-10-16T07:35:07.674Z,79.00
2018-10-16T07:37:36.749Z,79.06
2018-10-16T07:40:05.470Z,79.43
2018-10-16T07:42:34.949Z,79.44
2018-10-16T07:45:03.671Z,79.27
2018-10-16T07:47:33.108Z,79.60
2018-10-16T07:50:02.161Z,79.32
2018-10-16T07:52:31.843Z,78.96
2018-10-16T07:55:01.096Z,79.14
2018-10-16T07:57:30.822Z,79.52
2018-10-16T08:00:00.231Z,79.20
2018-10-16T08:02:30.584Z,79.06
2018-10-16T08:05:00.061Z,79.01
2018-10-16T08:07:29.841Z,79.73
2018-10-16T08:09:59.155Z,79.87
2018-10-16T08:12:28.714Z,79.66
2018-10-16T08:14:58.034Z,80.11
2018-10-16T08:17:27.318Z,80.08
2018-10-16T08:19:56.921Z,80.37
2018-10-16T08:22:26.213Z,80.50
2018-10-16T08:24:55.171Z,81.14
2018-10-16T08:27:28.403Z,80.03
2018-10-16T08:29:58.101Z,80.39
2018-10-16T08:32:27.559Z,80.25
2018-10-16T08:34:57.131Z,79.72
2018-10-16T08:37:25.919Z,79.31
2018-10-16T08:39:55.081Z,79.43
2018-10-16T08:42:24.035Z,79.06
2018-10-16T08:44:52.885Z,78.34
2018-10-16T08:53:11.141Z,77.43
2018-10-16T08:55:40.434Z,77.21
2018-10-16T08:58:10.023Z,77.24
2018-10-16T09:00:39.767Z,77.00
2018-10-16T09:03:08.709Z,76.76
2018-10-16T09:05:38.015Z,76.90
2018-10-16T09:08:07.597Z,75.69
2018-10-16T09:10:36.817Z,75.45
2018-10-16T09:13:06.101Z,75.58
2018-10-16T09:15:35.600Z,74.59
2018-10-16T09:18:04.869Z,74.44
2018-10-16T09:20:34.283Z,74.65
2018-10-16T09:23:03.570Z,74.29
2018-10-16T09:25:33.154Z,74.01
2018-10-16T09:28:02.473Z,73.89
2018-10-16T09:30:32.353Z,73.30
2018-10-16T09:33:01.637Z,73.39
2018-10-16T09:35:31.087Z,72.88
2018-10-16T09:38:00.544Z,72.60
2018-10-16T09:40:30.239Z,72.87
2018-10-16T09:42:59.336Z,72.28
2018-10-16T09:45:28.653Z,72.19
2018-10-16T09:47:58.189Z,71.53
2018-10-16T09:50:27.470Z,71.87
2018-10-16T09:52:56.799Z,70.40
2018-10-16T09:55:26.412Z,70.38
2018-10-16T09:57:55.733Z,69.22
2018-10-16T10:00:24.954Z,68.03
2018-10-16T10:02:54.415Z,67.64
2018-10-16T10:05:23.722Z,65.64
2018-10-16T10:07:53.258Z,65.61
2018-10-16T10:10:22.476Z,64.98
2018-10-16T10:12:53.871Z,65.12
2018-10-16T10:15:23.218Z,65.24
2018-10-16T10:17:52.177Z,63.90
2018-10-16T10:20:21.413Z,64.83
2018-10-16T10:22:51.540Z,64.70
2018-10-16T10:25:20.899Z,64.34
2018-10-16T10:27:50.569Z,64.07
2018-10-16T10:30:19.810Z,63.12
2018-10-16T10:32:49.666Z,62.94
2018-10-16T10:35:18.775Z,62.66
2018-10-16T10:37:48.386Z,61.39
2018-10-16T10:40:17.789Z,61.00
2018-10-16T10:42:48.510Z,60.00
2018-10-16T10:45:17.833Z,59.69
2018-10-16T10:47:48.111Z,57.91
2018-10-16T10:50:17.857Z,58.21
2018-10-16T10:52:48.698Z,57.34
2018-10-16T10:55:18.826Z,56.49
2018-10-16T10:57:48.708Z,56.56
2018-10-16T11:00:18.029Z,56.29
2018-10-16T11:02:48.452Z,54.70
2018-10-16T11:05:18.442Z,55.52
2018-10-16T11:07:48.629Z,56.10
2018-10-16T11:10:17.950Z,55.81
2018-10-16T11:12:48.779Z,55.16
2018-10-16T11:15:18.417Z,55.13
2018-10-16T11:17:48.853Z,55.75
2018-10-16T11:20:18.350Z,56.01
2018-10-16T11:22:48.762Z,56.74
2018-10-16T11:25:18.074Z,56.52
2018-10-16T11:27:48.769Z,56.66
2018-10-16T11:30:18.454Z,55.99
2018-10-16T11:32:48.701Z,57.22
2018-10-16T11:35:18.306Z,56.64
2018-10-16T11:37:48.738Z,56.99
2018-10-16T11:40:19.243Z,58.39
2018-10-16T11:42:51.160Z,57.30
2018-10-16T11:45:21.431Z,56.82
2018-10-16T11:47:50.718Z,56.71
2018-10-16T11:50:20.030Z,56.31
2018-10-16T11:52:49.374Z,56.23
2018-10-16T11:55:18.677Z,56.17
2018-10-16T11:57:48.940Z,56.32
2018-10-16T12:00:17.902Z,56.11
2018-10-16T12:02:48.843Z,55.98
2018-10-16T12:05:18.468Z,56.97
2018-10-16T12:07:48.834Z,57.48
2018-10-16T12:10:17.820Z,56.77
2018-10-16T12:12:48.457Z,57.56
2018-10-16T12:15:17.755Z,57.39
2018-10-16T12:17:47.072Z,58.01
2018-10-16T12:20:16.481Z,57.91
2018-10-16T12:22:45.776Z,58.60
2018-10-16T12:25:15.147Z,59.62
2018-10-16T12:27:44.614Z,59.85
2018-10-16T12:30:15.700Z,59.75
2018-10-16T12:35:36.535Z,59.91
2018-10-16T12:38:06.066Z,58.99
2018-10-16T12:40:35.662Z,58.77
2018-10-16T12:43:04.662Z,58.67
2018-10-16T12:45:34.134Z,58.38
2018-10-16T12:48:03.799Z,58.74
2018-10-16T12:50:32.980Z,59.67
2018-10-16T12:53:02.776Z,58.70
2018-10-16T12:55:32.246Z,58.84
2018-10-16T12:58:01.858Z,58.92
2018-10-16T13:00:31.158Z,58.79
2018-10-16T13:03:00.970Z,58.79
2018-10-16T13:05:30.721Z,59.26
2018-10-16T13:08:00.017Z,58.31
2018-10-16T13:10:29.530Z,59.79
2018-10-16T13:12:59.094Z,60.37
2018-10-16T13:15:28.706Z,60.17
2018-10-16T13:17:58.322Z,60.41
2018-10-16T13:20:27.786Z,60.62
2018-10-16T13:22:57.106Z,60.80
2018-10-16T13:25:26.482Z,60.61
2018-10-16T13:27:56.024Z,60.36
2018-10-16T13:30:25.398Z,59.66
2018-10-16T13:32:54.926Z,60.00
2018-10-16T13:35:24.933Z,59.22
2018-10-16T13:37:54.932Z,59.03
2018-10-16T13:40:24.366Z,58.58
2018-10-16T13:42:53.996Z,58.22
2018-10-16T13:45:23.697Z,57.21
2018-10-16T13:47:52.687Z,56.18
2018-10-16T13:50:21.979Z,55.30
2018-10-16T13:52:51.271Z,54.57
2018-10-16T13:55:20.594Z,53.18
2018-10-16T13:57:49.673Z,52.30
2018-10-16T14:00:18.958Z,52.41
2018-10-16T14:02:49.061Z,51.60
2018-10-16T14:05:18.477Z,51.68
2018-10-16T14:07:48.521Z,50.80
2018-10-16T14:10:17.493Z,51.30
2018-10-16T14:12:46.801Z,51.14
2018-10-16T14:15:15.792Z,50.99
2018-10-16T14:17:57.553Z,49.94
2018-10-16T14:20:30.417Z,50.63
2018-10-16T14:23:00.047Z,49.74
2018-10-16T14:25:29.354Z,49.04
2018-10-16T14:27:59.230Z,50.15
2018-10-16T14:30:28.947Z,49.42
2018-10-16T14:32:58.271Z,50.05
2018-10-16T14:35:27.786Z,50.32
2018-10-16T14:37:57.146Z,50.50
2018-10-16T14:40:26.924Z,51.34
2018-10-16T14:42:56.267Z,50.82
2018-10-16T14:45:25.901Z,52.07
2018-10-16T14:47:55.087Z,51.42
2018-10-16T14:50:24.834Z,52.30
2018-10-16T14:52:54.423Z,52.20
2018-10-16T14:55:23.974Z,53.09
2018-10-16T14:57:53.287Z,53.84
2018-10-16T15:00:22.854Z,53.38
2018-10-16T15:02:52.194Z,52.70
2018-10-16T15:05:21.794Z,53.16
2018-10-16T15:07:51.173Z,53.37
2018-10-16T15:10:20.504Z,54.83
2018-10-16T15:12:50.188Z,54.92
2018-10-16T15:15:19.990Z,54.73
2018-10-16T15:17:49.346Z,54.84
2018-10-16T15:20:18.579Z,54.88
2018-10-16T15:22:49.531Z,53.87
2018-10-16T15:25:19.066Z,53.86
2018-10-16T15:27:49.401Z,53.58
2018-10-16T15:30:19.015Z,53.08
2018-10-16T15:32:49.305Z,52.84
2018-10-16T15:35:18.622Z,52.81
2018-10-16T15:37:49.353Z,53.96
2018-10-16T15:40:18.586Z,53.60
2018-10-16T15:42:49.410Z,53.78
2018-10-16T15:45:18.398Z,53.72
2018-10-16T15:47:49.066Z,54.06
2018-10-16T15:50:18.054Z,54.60
2018-10-16T15:52:47.566Z,54.82
2018-10-16T15:55:17.414Z,55.09
2018-10-16T15:57:47.058Z,55.49
2018-10-16T16:00:16.289Z,55.27
2018-10-16T16:02:46.066Z,55.38
2018-10-16T16:05:15.027Z,55.08
2018-10-16T16:07:44.319Z,55.19
2018-10-16T16:10:13.695Z,56.31
2018-10-16T16:12:46.664Z,56.64
2018-10-16T16:15:16.141Z,57.13
2018-10-16T16:17:45.455Z,57.12
2018-10-16T16:20:14.837Z,57.56
2018-10-16T16:22:43.665Z,58.42
2018-10-16T16:25:13.179Z,58.83
2018-10-16T16:27:42.754Z,59.50
2018-10-16T16:30:11.929Z,59.73
2018-10-16T16:32:41.118Z,59.42
2018-10-16T16:35:10.876Z,60.25
2018-10-16T16:37:40.258Z,60.41
2018-10-16T16:40:09.376Z,59.97
2018-10-16T16:42:38.737Z,60.29
2018-10-16T16:45:08.273Z,59.98
2018-10-16T16:47:37.562Z,60.22
2018-10-16T16:50:06.948Z,60.90
2018-10-16T16:52:36.020Z,60.85
2018-10-16T16:55:04.986Z,61.53
2018-10-16T16:57:34.309Z,61.82
2018-10-16T17:00:03.868Z,61.65
2018-10-16T17:02:33.236Z,62.30
2018-10-16T17:05:03.094Z,62.71
2018-10-16T17:07:32.426Z,62.98
2018-10-16T17:10:01.845Z,63.20
2018-10-16T17:12:31.288Z,62.83
2018-10-16T17:15:00.744Z,62.75
2018-10-16T17:17:29.682Z,63.57
2018-10-16T17:19:59.339Z,63.62
2018-10-16T17:22:29.085Z,63.75
2018-10-16T17:24:58.450Z,63.51
2018-10-16T17:27:28.186Z,63.79
2018-10-16T17:29:57.902Z,63.94
2018-10-16T17:32:27.287Z,63.31
2018-10-16T17:34:56.893Z,64.18
2018-10-16T17:37:26.432Z,63.56
2018-10-16T17:39:55.498Z,64.65
2018-10-16T17:42:24.790Z,63.95
2018-10-16T17:44:54.314Z,64.45
2018-10-16T17:47:23.807Z,64.58
2018-10-16T17:49:53.630Z,65.07
2018-10-16T17:52:23.815Z,66.24
2018-10-16T17:54:53.176Z,65.98
2018-10-16T17:57:22.291Z,66.67
2018-10-16T17:59:51.750Z,66.66
2018-10-16T18:02:21.346Z,66.55
2018-10-16T18:04:50.930Z,66.69
2018-10-16T18:07:19.895Z,67.06
2018-10-16T18:09:49.832Z,66.94
2018-10-16T18:12:19.470Z,67.79
2018-10-16T18:14:49.434Z,68.40
2018-10-16T18:17:18.732Z,68.94
2018-10-16T18:19:48.018Z,68.19
2018-10-16T18:22:17.290Z,68.39
2018-10-16T18:24:46.622Z,67.48
2018-10-16T18:27:16.130Z,67.10
2018-10-16T18:29:45.623Z,67.32
2018-10-16T18:32:15.411Z,67.89
2018-10-16T18:34:44.718Z,67.49
2018-10-16T18:37:13.778Z,67.83
2018-10-16T18:39:43.165Z,68.68
2018-10-16T18:42:12.586Z,68.57
2018-10-16T18:44:41.870Z,69.20
2018-10-16T18:47:11.172Z,68.51
2018-10-16T18:49:40.669Z,69.24
2018-10-16T18:52:09.954Z,69.01
2018-10-16T18:54:52.205Z,69.00
2018-10-16T18:57:23.234Z,69.53
2018-10-16T18:59:52.886Z,69.26
2018-10-16T19:02:22.315Z,70.15
2018-10-16T19:04:51.971Z,70.50
2018-10-16T19:07:21.559Z,70.45
2018-10-16T19:09:50.895Z,70.94
2018-10-16T19:12:20.194Z,71.27
2018-10-16T19:14:49.938Z,71.63
2018-10-16T19:17:19.503Z,71.13
2018-10-16T19:19:50.167Z,72.18
2018-10-16T19:22:19.667Z,72.15
2018-10-16T19:24:49.701Z,71.69
2018-10-16T19:27:19.478Z,71.67
2018-10-16T19:29:50.078Z,73.41
2018-10-16T19:32:19.554Z,73.57
2018-10-16T19:34:49.895Z,72.92
2018-10-16T19:37:19.225Z,73.00
2018-10-16T19:39:49.990Z,73.08
2018-10-16T19:42:19.637Z,72.60
2018-10-16T19:44:49.895Z,72.84
2018-10-16T19:47:19.196Z,73.07
2018-10-16T19:49:49.906Z,73.75
2018-10-16T19:52:19.203Z,73.61
2018-10-16T19:54:50.110Z,73.47
2018-10-16T19:57:19.246Z,74.27
2018-10-16T19:59:49.512Z,73.40
2018-10-16T20:02:18.966Z,74.18
2018-10-16T20:04:49.315Z,73.77
2018-10-16T20:07:18.446Z,73.98
2018-10-16T20:09:47.920Z,74.88
2018-10-16T20:12:17.207Z,75.07
2018-10-16T20:14:46.521Z,74.36
2018-10-16T20:17:15.827Z,75.16
2018-10-16T20:19:45.174Z,75.17
2018-10-16T20:22:14.766Z,74.27
2018-10-16T20:24:44.215Z,74.69
2018-10-16T20:27:13.343Z,74.93
2018-10-16T20:29:54.826Z,74.60
2018-10-16T20:32:36.551Z,75.29
2018-10-16T20:35:06.850Z,75.77
2018-10-16T20:37:36.143Z,75.60
2018-10-16T20:40:05.433Z,76.55
2018-10-16T20:42:34.961Z,75.94
2018-10-16T20:45:03.796Z,76.35
2018-10-16T20:47:33.136Z,77.35
2018-10-16T20:50:02.895Z,77.59
2018-10-16T20:52:32.187Z,76.73
2018-10-16T20:55:01.839Z,77.17
2018-10-16T20:57:31.013Z,77.05
2018-10-16T21:00:00.791Z,77.55
2018-10-16T21:02:30.102Z,77.70
2018-10-16T21:05:00.098Z,77.71
2018-10-16T21:07:29.045Z,77.16
2018-10-16T21:09:58.766Z,77.62
2018-10-16T21:12:28.063Z,77.78
2018-10-16T21:14:57.896Z,77.93
2018-10-16T21:17:27.358Z,78.14
2018-10-16T21:19:56.991Z,77.83
2018-10-16T21:22:25.957Z,77.81
2018-10-16T21:24:55.589Z,77.72
2018-10-16T21:27:25.109Z,78.42
2018-10-16T21:29:54.829Z,78.06
2018-10-16T21:32:24.133Z,78.43
2018-10-16T21:34:53.467Z,78.51
2018-10-16T21:37:22.616Z,78.39
2018-10-16T21:39:52.193Z,78.03
2018-10-16T21:42:21.493Z,78.92
2018-10-16T21:44:51.090Z,78.80
2018-10-16T21:47:21.839Z,78.68
2018-10-16T21:49:51.477Z,78.27
2018-10-16T21:52:20.889Z,78.59
2018-10-16T21:54:50.289Z,78.63
2018-10-16T21:57:19.910Z,78.67
2018-10-16T21:59:50.114Z,79.16
2018-10-16T22:02:19.186Z,79.35
2018-10-16T22:04:48.138Z,79.22
2018-10-16T22:07:17.529Z,79.56
2018-10-16T22:09:47.053Z,79.55
2018-10-16T22:12:15.550Z,78.76
2018-10-16T22:14:44.802Z,78.95
2018-10-16T22:17:14.159Z,79.30
2018-10-16T22:19:43.885Z,79.57
2018-10-16T22:22:13.863Z,79.89
2018-10-16T22:24:43.149Z,79.81
2018-10-16T22:27:12.448Z,78.94
2018-10-16T22:29:42.131Z,79.07
2018-10-16T22:32:11.546Z,79.48
2018-10-16T22:34:40.846Z,79.84
2018-10-16T22:37:10.278Z,79.63
2018-10-16T22:39:39.321Z,80.69
2018-10-16T22:42:08.650Z,80.28
2018-10-16T22:44:38.089Z,81.22
2018-10-16T22:47:07.143Z,80.89
2018-10-16T22:49:48.550Z,81.02
2018-10-16T22:52:30.529Z,81.56
2018-10-16T22:55:10.069Z,81.78
2018-10-16T22:57:39.512Z,81.37
2018-10-16T23:00:08.526Z,81.86
2018-10-16T23:02:38.151Z,82.24
2018-10-16T23:05:07.200Z,83.41
2018-10-16T23:07:36.346Z,84.01
2018-10-16T23:10:05.645Z,83.77
2018-10-16T23:12:35.274Z,83.57
2018-10-16T23:15:04.014Z,83.48
2018-10-16T23:17:33.307Z,83.42
2018-10-16T23:20:02.344Z,83.62
2018-10-16T23:22:31.929Z,82.95
2018-10-16T23:25:01.522Z,82.93
2018-10-16T23:27:31.290Z,83.26
2018-10-16T23:30:00.579Z,83.40
2018-10-16T23:32:30.134Z,83.82
2018-10-16T23:34:59.749Z,83.62
2018-10-16T23:37:29.191Z,83.76
2018-10-16T23:39:58.526Z,84.50
2018-10-16T23:42:27.847Z,84.70
2018-10-16T23:44:57.438Z,84.56
2018-10-16T23:47:27.189Z,84.99
2018-10-16T23:49:56.506Z,85.82
2018-10-16T23:52:25.452Z,85.52
2018-10-16T23:54:54.808Z,85.73
2018-10-16T23:57:24.499Z,86.56
2018-10-16T23:59:54.394Z,86.16
